CCA121 ZBAA-ZKPY
Flight info
| Callsign | CCA121 |
|---|---|
| Flight time | 1h 47m |
| Altitude | 39100 |
| Route | DOTRA5Y DOTRA B334 KAKAT W31 CHG A575 BIDIB A345 GASAN GAS11A |
| Aircraft | A320/M-SDE3FGHIRWY/LB1 |
Departure
| Time | 2026-04-16 05:09 |
|---|---|
| Airport | Beijing Capital International Airport (ZBAA) |
Arrival
| Time | 2026-04-16 06:56 |
|---|---|
| Airport | Pyongyang Sunan International Airport (ZKPY) |
| Time | Latitude | Longitude | Altitude | Speed | Heading |
|---|---|---|---|---|---|
| 2026-04-16 04:29 | 40.07466 | 116.58452 | 117 ft | 0 kts | 353° |
| 2026-04-16 04:57 | 40.07458 | 116.58453 | 118 ft | 3 kts | 355° |
| 2026-04-16 04:57 | 40.07431 | 116.58454 | 106 ft | 3 kts | 7° |
| 2026-04-16 04:57 | 40.07418 | 116.58452 | 112 ft | 3 kts | 18° |
| 2026-04-16 04:57 | 40.07401 | 116.58441 | 113 ft | 3 kts | 49° |
| 2026-04-16 04:58 | 40.07395 | 116.58427 | 113 ft | 1 kts | 83° |
| 2026-04-16 04:58 | 40.07394 | 116.58426 | 113 ft | 0 kts | 84° |
| 2026-04-16 05:01 | 40.07395 | 116.58431 | 113 ft | 3 kts | 84° |
| 2026-04-16 05:02 | 40.07399 | 116.58479 | 112 ft | 9 kts | 84° |
| 2026-04-16 05:02 | 40.07407 | 116.58592 | 113 ft | 14 kts | 84° |
| 2026-04-16 05:02 | 40.07412 | 116.58723 | 114 ft | 15 kts | 84° |
| 2026-04-16 05:02 | 40.07424 | 116.58861 | 114 ft | 16 kts | 83° |
| 2026-04-16 05:03 | 40.07436 | 116.59007 | 115 ft | 17 kts | 83° |
| 2026-04-16 05:03 | 40.07450 | 116.59159 | 113 ft | 17 kts | 83° |
| 2026-04-16 05:03 | 40.07478 | 116.59284 | 114 ft | 13 kts | 39° |
| 2026-04-16 05:04 | 40.07688 | 116.59266 | 113 ft | 21 kts | 353° |
| 2026-04-16 05:04 | 40.07837 | 116.59245 | 115 ft | 22 kts | 353° |
| 2026-04-16 05:04 | 40.07992 | 116.59219 | 115 ft | 23 kts | 353° |
| 2026-04-16 05:04 | 40.08149 | 116.59195 | 114 ft | 23 kts | 353° |
| 2026-04-16 05:05 | 40.08309 | 116.59170 | 115 ft | 23 kts | 353° |
| 2026-04-16 05:05 | 40.08452 | 116.59147 | 113 ft | 18 kts | 353° |
| 2026-04-16 05:05 | 40.08572 | 116.59128 | 116 ft | 17 kts | 353° |
| 2026-04-16 05:05 | 40.08680 | 116.59112 | 114 ft | 14 kts | 353° |
| 2026-04-16 05:06 | 40.08762 | 116.59099 | 116 ft | 10 kts | 353° |
| 2026-04-16 05:06 | 40.08843 | 116.59085 | 115 ft | 14 kts | 352° |
| 2026-04-16 05:06 | 40.08931 | 116.59070 | 118 ft | 10 kts | 353° |
| 2026-04-16 05:06 | 40.08981 | 116.59091 | 116 ft | 7 kts | 49° |
| 2026-04-16 05:07 | 40.08980 | 116.59171 | 117 ft | 11 kts | 106° |
| 2026-04-16 05:07 | 40.08983 | 116.59290 | 118 ft | 14 kts | 84° |
| 2026-04-16 05:07 | 40.08957 | 116.59397 | 116 ft | 13 kts | 129° |
| 2026-04-16 05:07 | 40.08898 | 116.59481 | 114 ft | 12 kts | 148° |
| 2026-04-16 05:08 | 40.08820 | 116.59500 | 116 ft | 11 kts | 173° |
| 2026-04-16 05:08 | 40.08703 | 116.59518 | 115 ft | 38 kts | 173° |
| 2026-04-16 05:08 | 40.08114 | 116.59610 | 115 ft | 129 kts | 173° |
| 2026-04-16 05:08 | 40.07032 | 116.59780 | 536 ft | 164 kts | 173° |
| 2026-04-16 05:09 | 40.05907 | 116.59962 | 1710 ft | 160 kts | 174° |
| 2026-04-16 05:09 | 40.04804 | 116.60138 | 2435 ft | 171 kts | 176° |
| 2026-04-16 05:09 | 40.03531 | 116.60327 | 2822 ft | 197 kts | 175° |
| 2026-04-16 05:09 | 40.02080 | 116.60545 | 3365 ft | 222 kts | 175° |
| 2026-04-16 05:10 | 40.00468 | 116.60791 | 4005 ft | 243 kts | 175° |
| 2026-04-16 05:10 | 39.98763 | 116.61057 | 5011 ft | 250 kts | 175° |
| 2026-04-16 05:10 | 39.97022 | 116.61334 | 6045 ft | 254 kts | 175° |
| 2026-04-16 05:10 | 39.95242 | 116.61619 | 7032 ft | 260 kts | 175° |
| 2026-04-16 05:11 | 39.93438 | 116.61906 | 8000 ft | 264 kts | 175° |
| 2026-04-16 05:11 | 39.91597 | 116.62195 | 8953 ft | 268 kts | 176° |
| 2026-04-16 05:11 | 39.89726 | 116.62485 | 9911 ft | 272 kts | 176° |
| 2026-04-16 05:11 | 39.87805 | 116.62933 | 10428 ft | 295 kts | 162° |
| 2026-04-16 05:12 | 39.86054 | 116.64549 | 10748 ft | 329 kts | 133° |
| 2026-04-16 05:12 | 39.84942 | 116.67265 | 11277 ft | 351 kts | 110° |
| 2026-04-16 05:12 | 39.84643 | 116.70473 | 12036 ft | 365 kts | 89° |
| 2026-04-16 05:12 | 39.84943 | 116.73781 | 12808 ft | 371 kts | 85° |
| 2026-04-16 05:13 | 39.85292 | 116.77090 | 13597 ft | 376 kts | 84° |
| 2026-04-16 05:13 | 39.85663 | 116.80479 | 14298 ft | 380 kts | 84° |
| 2026-04-16 05:13 | 39.86045 | 116.83904 | 14997 ft | 384 kts | 84° |
| 2026-04-16 05:13 | 39.86432 | 116.87365 | 15683 ft | 388 kts | 84° |
| 2026-04-16 05:14 | 39.86821 | 116.90863 | 16356 ft | 393 kts | 84° |
| 2026-04-16 05:14 | 39.87213 | 116.94407 | 17025 ft | 397 kts | 84° |
| 2026-04-16 05:14 | 39.87610 | 116.97982 | 17691 ft | 401 kts | 84° |
| 2026-04-16 05:14 | 39.88154 | 117.01569 | 18186 ft | 408 kts | 72° |
| 2026-04-16 05:15 | 39.89466 | 117.04870 | 18427 ft | 419 kts | 53° |
| 2026-04-16 05:15 | 39.91588 | 117.07532 | 18622 ft | 432 kts | 33° |
| 2026-04-16 05:15 | 39.94323 | 117.09189 | 18680 ft | 437 kts | 12° |
| 2026-04-16 05:15 | 39.97324 | 117.09561 | 18685 ft | 433 kts | 353° |
| 2026-04-16 05:16 | 40.00329 | 117.09086 | 18758 ft | 436 kts | 349° |
| 2026-04-16 05:16 | 40.03313 | 117.08683 | 19264 ft | 440 kts | 357° |
| 2026-04-16 05:16 | 40.06371 | 117.09185 | 19729 ft | 449 kts | 12° |
| 2026-04-16 05:16 | 40.09419 | 117.10288 | 19960 ft | 459 kts | 14° |
| 2026-04-16 05:17 | 40.12499 | 117.11461 | 20357 ft | 463 kts | 14° |
| 2026-04-16 05:17 | 40.15601 | 117.12673 | 20764 ft | 467 kts | 15° |
| 2026-04-16 05:17 | 40.18728 | 117.13910 | 21173 ft | 470 kts | 15° |
| 2026-04-16 05:17 | 40.21868 | 117.15146 | 21591 ft | 473 kts | 15° |
| 2026-04-16 05:18 | 40.25028 | 117.16377 | 22019 ft | 475 kts | 15° |
| 2026-04-16 05:18 | 40.28208 | 117.17609 | 22431 ft | 478 kts | 14° |
| 2026-04-16 05:18 | 40.31414 | 117.18843 | 22830 ft | 480 kts | 14° |
| 2026-04-16 05:18 | 40.34627 | 117.20074 | 23223 ft | 482 kts | 14° |
| 2026-04-16 05:19 | 40.37853 | 117.21311 | 23587 ft | 484 kts | 14° |
| 2026-04-16 05:19 | 40.41094 | 117.22557 | 23897 ft | 487 kts | 14° |
| 2026-04-16 05:19 | 40.44352 | 117.23814 | 24205 ft | 489 kts | 14° |
| 2026-04-16 05:19 | 40.47585 | 117.25066 | 24509 ft | 492 kts | 14° |
| 2026-04-16 05:20 | 40.50876 | 117.26344 | 24858 ft | 494 kts | 14° |
| 2026-04-16 05:20 | 40.54176 | 117.27630 | 25168 ft | 495 kts | 14° |
| 2026-04-16 05:20 | 40.57489 | 117.28920 | 25452 ft | 498 kts | 14° |
| 2026-04-16 05:20 | 40.60820 | 117.30215 | 25726 ft | 500 kts | 14° |
| 2026-04-16 05:21 | 40.64166 | 117.31516 | 25982 ft | 503 kts | 13° |
| 2026-04-16 05:21 | 40.67529 | 117.32820 | 26249 ft | 505 kts | 13° |
| 2026-04-16 05:21 | 40.70917 | 117.34134 | 26481 ft | 508 kts | 13° |
| 2026-04-16 05:21 | 40.74308 | 117.35456 | 26721 ft | 511 kts | 13° |
| 2026-04-16 05:22 | 40.77715 | 117.36795 | 27067 ft | 511 kts | 13° |
| 2026-04-16 05:22 | 40.81120 | 117.38138 | 27461 ft | 510 kts | 13° |
| 2026-04-16 05:22 | 40.84523 | 117.39480 | 27860 ft | 510 kts | 13° |
| 2026-04-16 05:22 | 40.87927 | 117.40818 | 28277 ft | 509 kts | 13° |
| 2026-04-16 05:23 | 40.91265 | 117.42133 | 28930 ft | 492 kts | 13° |
| 2026-04-16 05:23 | 40.94518 | 117.43416 | 29134 ft | 485 kts | 13° |
| 2026-04-16 05:23 | 40.97757 | 117.44688 | 29174 ft | 484 kts | 12° |
| 2026-04-16 05:24 | 41.04197 | 117.47220 | 29164 ft | 483 kts | 13° |
| 2026-04-16 05:24 | 41.10652 | 117.49764 | 29169 ft | 483 kts | 12° |
| 2026-04-16 05:25 | 41.17064 | 117.52294 | 29172 ft | 483 kts | 12° |
| 2026-04-16 05:25 | 41.23503 | 117.54847 | 29169 ft | 484 kts | 12° |
| 2026-04-16 05:26 | 41.29953 | 117.57414 | 29166 ft | 484 kts | 12° |
| 2026-04-16 05:26 | 41.36411 | 117.59990 | 29183 ft | 484 kts | 13° |
| 2026-04-16 05:27 | 41.42860 | 117.62569 | 29172 ft | 484 kts | 13° |
| 2026-04-16 05:27 | 41.49306 | 117.65143 | 29172 ft | 483 kts | 13° |
| 2026-04-16 05:28 | 41.55751 | 117.67717 | 29169 ft | 484 kts | 13° |
| 2026-04-16 05:28 | 41.62206 | 117.70303 | 29167 ft | 484 kts | 13° |
| 2026-04-16 05:29 | 41.68654 | 117.72906 | 29173 ft | 484 kts | 13° |
| 2026-04-16 05:29 | 41.75060 | 117.75493 | 29172 ft | 484 kts | 13° |
| 2026-04-16 05:30 | 41.81516 | 117.78093 | 29176 ft | 484 kts | 13° |
| 2026-04-16 05:30 | 41.87964 | 117.80702 | 29189 ft | 484 kts | 13° |
| 2026-04-16 05:31 | 41.94413 | 117.83324 | 29171 ft | 486 kts | 13° |
| 2026-04-16 05:31 | 42.00747 | 117.86545 | 29178 ft | 492 kts | 27° |
| 2026-04-16 05:32 | 42.06113 | 117.92279 | 29181 ft | 497 kts | 47° |
| 2026-04-16 05:32 | 42.08213 | 117.95975 | 29181 ft | 498 kts | 58° |
| 2026-04-16 05:32 | 42.09838 | 118.00061 | 29179 ft | 492 kts | 67° |
| 2026-04-16 05:33 | 42.12642 | 118.08429 | 29188 ft | 489 kts | 67° |
| 2026-04-16 05:33 | 42.15430 | 118.16785 | 29187 ft | 488 kts | 66° |
| 2026-04-16 05:34 | 42.17797 | 118.25279 | 29196 ft | 487 kts | 79° |
| 2026-04-16 05:34 | 42.18460 | 118.34281 | 29203 ft | 481 kts | 92° |
| 2026-04-16 05:35 | 42.18570 | 118.43301 | 29212 ft | 481 kts | 92° |
| 2026-04-16 05:35 | 42.18687 | 118.52317 | 29210 ft | 481 kts | 92° |
| 2026-04-16 05:36 | 42.18803 | 118.61357 | 29209 ft | 481 kts | 92° |
| 2026-04-16 05:36 | 42.18907 | 118.70374 | 29221 ft | 481 kts | 92° |
| 2026-04-16 05:37 | 42.18520 | 118.79307 | 29224 ft | 474 kts | 106° |
| 2026-04-16 05:37 | 42.16436 | 118.87537 | 29214 ft | 462 kts | 122° |
| 2026-04-16 05:38 | 42.13409 | 118.95143 | 29211 ft | 461 kts | 124° |
| 2026-04-16 05:38 | 42.10362 | 119.02752 | 29214 ft | 461 kts | 124° |
| 2026-04-16 05:39 | 42.07304 | 119.10372 | 29210 ft | 462 kts | 124° |
| 2026-04-16 05:39 | 42.04240 | 119.17963 | 29193 ft | 461 kts | 124° |
| 2026-04-16 05:40 | 42.01168 | 119.25542 | 29194 ft | 461 kts | 124° |
| 2026-04-16 05:40 | 41.98121 | 119.33071 | 29189 ft | 461 kts | 124° |
| 2026-04-16 05:41 | 41.95048 | 119.40639 | 29196 ft | 461 kts | 124° |
| 2026-04-16 05:41 | 41.91987 | 119.48225 | 29174 ft | 462 kts | 123° |
| 2026-04-16 05:42 | 41.88979 | 119.55839 | 29161 ft | 461 kts | 123° |
| 2026-04-16 05:42 | 41.85972 | 119.63444 | 29161 ft | 461 kts | 123° |
| 2026-04-16 05:43 | 41.82949 | 119.71013 | 29135 ft | 461 kts | 124° |
| 2026-04-16 05:43 | 41.79909 | 119.78611 | 29137 ft | 462 kts | 124° |
| 2026-04-16 05:44 | 41.76868 | 119.86194 | 29131 ft | 463 kts | 124° |
| 2026-04-16 05:44 | 41.74329 | 119.92504 | 29131 ft | 463 kts | 124° |
| 2026-04-16 05:45 | 41.71265 | 120.00095 | 29125 ft | 463 kts | 124° |
| 2026-04-16 05:45 | 41.68196 | 120.07672 | 29125 ft | 463 kts | 124° |
| 2026-04-16 05:46 | 41.64622 | 120.16484 | 29130 ft | 463 kts | 124° |
| 2026-04-16 05:46 | 41.62064 | 120.22777 | 29128 ft | 463 kts | 124° |
| 2026-04-16 05:47 | 41.58989 | 120.30329 | 29121 ft | 462 kts | 124° |
| 2026-04-16 05:47 | 41.55953 | 120.37905 | 29127 ft | 465 kts | 120° |
| 2026-04-16 05:48 | 41.54198 | 120.46314 | 29147 ft | 478 kts | 100° |
| 2026-04-16 05:48 | 41.54319 | 120.55251 | 29115 ft | 484 kts | 89° |
| 2026-04-16 05:49 | 41.54797 | 120.64223 | 29125 ft | 485 kts | 89° |
| 2026-04-16 05:49 | 41.55260 | 120.73200 | 29144 ft | 485 kts | 89° |
| 2026-04-16 05:50 | 41.55725 | 120.82179 | 29156 ft | 485 kts | 89° |
| 2026-04-16 05:50 | 41.56180 | 120.91163 | 29149 ft | 484 kts | 89° |
| 2026-04-16 05:51 | 41.56625 | 121.00139 | 29150 ft | 485 kts | 89° |
| 2026-04-16 05:51 | 41.57060 | 121.09134 | 29155 ft | 486 kts | 89° |
| 2026-04-16 05:52 | 41.57488 | 121.18149 | 29158 ft | 486 kts | 89° |
| 2026-04-16 05:52 | 41.58072 | 121.27151 | 29177 ft | 487 kts | 86° |
| 2026-04-16 05:53 | 41.58844 | 121.36148 | 29170 ft | 487 kts | 86° |
| 2026-04-16 05:53 | 41.59609 | 121.45137 | 29156 ft | 487 kts | 86° |
| 2026-04-16 05:54 | 41.60310 | 121.54151 | 29160 ft | 487 kts | 87° |
| 2026-04-16 05:54 | 41.60970 | 121.63107 | 29160 ft | 488 kts | 87° |
| 2026-04-16 05:55 | 41.61629 | 121.72136 | 29172 ft | 489 kts | 87° |
| 2026-04-16 05:55 | 41.62306 | 121.81176 | 29167 ft | 489 kts | 86° |
| 2026-04-16 05:56 | 41.62979 | 121.90241 | 29163 ft | 490 kts | 87° |
| 2026-04-16 05:56 | 41.63633 | 121.99302 | 29169 ft | 490 kts | 87° |
| 2026-04-16 05:57 | 41.64270 | 122.08357 | 29179 ft | 489 kts | 89° |
| 2026-04-16 05:57 | 41.63850 | 122.17343 | 29176 ft | 482 kts | 103° |
| 2026-04-16 05:58 | 41.62832 | 122.26218 | 29156 ft | 482 kts | 103° |
| 2026-04-16 05:58 | 41.61826 | 122.35096 | 29162 ft | 484 kts | 103° |
| 2026-04-16 05:59 | 41.60820 | 122.43943 | 29167 ft | 485 kts | 103° |
| 2026-04-16 05:59 | 41.59792 | 122.52847 | 29161 ft | 485 kts | 103° |
| 2026-04-16 06:00 | 41.58746 | 122.61762 | 29153 ft | 485 kts | 103° |
| 2026-04-16 06:00 | 41.57704 | 122.70677 | 29155 ft | 485 kts | 103° |
| 2026-04-16 06:01 | 41.56653 | 122.79568 | 29164 ft | 485 kts | 103° |
| 2026-04-16 06:01 | 41.55599 | 122.88466 | 29166 ft | 485 kts | 103° |
| 2026-04-16 06:02 | 41.54006 | 123.01793 | 29178 ft | 484 kts | 104° |
| 2026-04-16 06:02 | 41.52927 | 123.10655 | 29179 ft | 484 kts | 104° |
| 2026-04-16 06:03 | 41.51852 | 123.19510 | 29178 ft | 483 kts | 104° |
| 2026-04-16 06:03 | 41.50771 | 123.28356 | 29168 ft | 483 kts | 104° |
| 2026-04-16 06:04 | 41.49729 | 123.37193 | 29175 ft | 483 kts | 103° |
| 2026-04-16 06:04 | 41.48766 | 123.46049 | 29181 ft | 482 kts | 102° |
| 2026-04-16 06:05 | 41.47799 | 123.54893 | 29177 ft | 482 kts | 103° |
| 2026-04-16 06:05 | 41.46801 | 123.63721 | 29154 ft | 481 kts | 103° |
| 2026-04-16 06:06 | 41.45783 | 123.72541 | 29169 ft | 481 kts | 103° |
| 2026-04-16 06:06 | 41.44761 | 123.81363 | 29175 ft | 482 kts | 103° |
| 2026-04-16 06:07 | 41.43738 | 123.90203 | 29182 ft | 482 kts | 103° |
| 2026-04-16 06:07 | 41.42711 | 123.99030 | 29175 ft | 482 kts | 102° |
| 2026-04-16 06:08 | 41.42010 | 124.03376 | 29174 ft | 477 kts | 113° |
| 2026-04-16 06:08 | 41.40664 | 124.07361 | 29175 ft | 468 kts | 127° |
| 2026-04-16 06:08 | 41.38743 | 124.10797 | 29178 ft | 458 kts | 140° |
| 2026-04-16 06:08 | 41.36391 | 124.13574 | 29172 ft | 447 kts | 152° |
| 2026-04-16 06:09 | 41.33731 | 124.15619 | 29182 ft | 435 kts | 163° |
| 2026-04-16 06:09 | 41.30903 | 124.16886 | 29187 ft | 424 kts | 174° |
| 2026-04-16 06:09 | 41.25127 | 124.17640 | 29206 ft | 416 kts | 184° |
| 2026-04-16 06:10 | 41.19332 | 124.18125 | 29212 ft | 417 kts | 183° |
| 2026-04-16 06:10 | 41.13585 | 124.18615 | 29221 ft | 416 kts | 183° |
| 2026-04-16 06:11 | 41.07795 | 124.19113 | 29222 ft | 416 kts | 183° |
| 2026-04-16 06:11 | 41.02016 | 124.19634 | 29230 ft | 417 kts | 182° |
| 2026-04-16 06:12 | 40.96239 | 124.20292 | 29225 ft | 417 kts | 182° |
| 2026-04-16 06:12 | 40.90461 | 124.21008 | 29224 ft | 421 kts | 180° |
| 2026-04-16 06:13 | 40.87562 | 124.21980 | 29250 ft | 438 kts | 163° |
| 2026-04-16 06:13 | 40.84981 | 124.24073 | 29253 ft | 436 kts | 146° |
| 2026-04-16 06:13 | 40.83018 | 124.27082 | 29252 ft | 432 kts | 127° |
| 2026-04-16 06:13 | 40.81856 | 124.30712 | 29251 ft | 427 kts | 107° |
| 2026-04-16 06:14 | 40.81607 | 124.34572 | 29250 ft | 420 kts | 86° |
| 2026-04-16 06:14 | 40.82234 | 124.38286 | 29254 ft | 413 kts | 72° |
| 2026-04-16 06:14 | 40.84151 | 124.45408 | 29256 ft | 410 kts | 70° |
| 2026-04-16 06:15 | 40.86094 | 124.52500 | 29255 ft | 411 kts | 70° |
| 2026-04-16 06:15 | 40.88037 | 124.59610 | 29254 ft | 411 kts | 70° |
| 2026-04-16 06:16 | 40.89974 | 124.66680 | 29252 ft | 411 kts | 70° |
| 2026-04-16 06:16 | 40.91929 | 124.73795 | 29244 ft | 411 kts | 70° |
| 2026-04-16 06:17 | 40.93878 | 124.80915 | 29248 ft | 411 kts | 70° |
| 2026-04-16 06:17 | 40.95812 | 124.88038 | 29248 ft | 412 kts | 70° |
| 2026-04-16 06:18 | 40.97751 | 124.95165 | 29241 ft | 412 kts | 70° |
| 2026-04-16 06:18 | 40.99693 | 125.02292 | 29234 ft | 411 kts | 70° |
| 2026-04-16 06:19 | 41.01633 | 125.09420 | 29236 ft | 411 kts | 70° |
| 2026-04-16 06:19 | 41.03552 | 125.16519 | 29242 ft | 411 kts | 70° |
| 2026-04-16 06:20 | 41.05474 | 125.23707 | 29238 ft | 411 kts | 70° |
| 2026-04-16 06:20 | 41.07382 | 125.30802 | 29233 ft | 410 kts | 70° |
| 2026-04-16 06:21 | 41.08030 | 125.34411 | 29233 ft | 395 kts | 89° |
| 2026-04-16 06:21 | 41.07791 | 125.37911 | 29237 ft | 370 kts | 112° |
| 2026-04-16 06:21 | 41.06728 | 125.40873 | 29238 ft | 346 kts | 136° |
| 2026-04-16 06:21 | 41.05037 | 125.42955 | 29240 ft | 322 kts | 161° |
| 2026-04-16 06:22 | 41.01022 | 125.45207 | 29233 ft | 313 kts | 170° |
| 2026-04-16 06:22 | 40.96941 | 125.47237 | 29241 ft | 314 kts | 170° |
| 2026-04-16 06:23 | 40.92843 | 125.49247 | 29247 ft | 314 kts | 170° |
| 2026-04-16 06:23 | 40.88756 | 125.51252 | 29246 ft | 313 kts | 170° |
| 2026-04-16 06:24 | 40.84679 | 125.53260 | 29251 ft | 313 kts | 170° |
| 2026-04-16 06:24 | 40.81289 | 125.54927 | 29251 ft | 312 kts | 170° |
| 2026-04-16 06:25 | 40.76547 | 125.57290 | 29228 ft | 312 kts | 170° |
| 2026-04-16 06:25 | 40.73158 | 125.58963 | 29238 ft | 313 kts | 170° |
| 2026-04-16 06:26 | 40.69078 | 125.60970 | 29239 ft | 313 kts | 170° |
| 2026-04-16 06:26 | 40.64341 | 125.63295 | 29231 ft | 312 kts | 170° |
| 2026-04-16 06:27 | 40.60930 | 125.64944 | 29239 ft | 312 kts | 170° |
| 2026-04-16 06:27 | 40.56844 | 125.66926 | 29230 ft | 313 kts | 170° |
| 2026-04-16 06:28 | 40.52774 | 125.68897 | 29238 ft | 313 kts | 170° |
| 2026-04-16 06:28 | 40.48678 | 125.70872 | 29245 ft | 313 kts | 170° |
| 2026-04-16 06:29 | 40.44600 | 125.71823 | 29244 ft | 282 kts | 204° |
| 2026-04-16 06:29 | 40.42920 | 125.70753 | 29244 ft | 262 kts | 228° |
| 2026-04-16 06:29 | 40.41904 | 125.68869 | 29231 ft | 251 kts | 253° |
| 2026-04-16 06:30 | 40.41746 | 125.66609 | 29236 ft | 254 kts | 275° |
| 2026-04-16 06:30 | 40.42130 | 125.64323 | 29235 ft | 258 kts | 279° |
| 2026-04-16 06:30 | 40.42604 | 125.62018 | 29236 ft | 260 kts | 280° |
| 2026-04-16 06:30 | 40.43078 | 125.59749 | 29237 ft | 261 kts | 280° |
| 2026-04-16 06:31 | 40.43568 | 125.57447 | 29239 ft | 263 kts | 280° |
| 2026-04-16 06:31 | 40.44060 | 125.55133 | 29234 ft | 264 kts | 280° |
| 2026-04-16 06:31 | 40.44553 | 125.52813 | 29232 ft | 263 kts | 280° |
| 2026-04-16 06:31 | 40.45049 | 125.50492 | 29235 ft | 264 kts | 280° |
| 2026-04-16 06:32 | 40.45545 | 125.48163 | 29240 ft | 266 kts | 280° |
| 2026-04-16 06:32 | 40.46037 | 125.45836 | 29240 ft | 265 kts | 280° |
| 2026-04-16 06:32 | 40.46534 | 125.43495 | 29260 ft | 266 kts | 280° |
| 2026-04-16 06:32 | 40.47036 | 125.41155 | 29257 ft | 266 kts | 280° |
| 2026-04-16 06:33 | 40.47540 | 125.38815 | 29249 ft | 266 kts | 280° |
| 2026-04-16 06:33 | 40.48091 | 125.36474 | 29251 ft | 275 kts | 288° |
| 2026-04-16 06:33 | 40.49130 | 125.34306 | 29264 ft | 282 kts | 298° |
| 2026-04-16 06:33 | 40.50329 | 125.32267 | 29270 ft | 282 kts | 300° |
| 2026-04-16 06:34 | 40.51510 | 125.30305 | 29264 ft | 283 kts | 300° |
| 2026-04-16 06:34 | 40.52717 | 125.28309 | 29262 ft | 282 kts | 300° |
| 2026-04-16 06:34 | 40.53935 | 125.26294 | 29263 ft | 281 kts | 300° |
| 2026-04-16 06:34 | 40.55157 | 125.24275 | 29242 ft | 282 kts | 300° |
| 2026-04-16 06:35 | 40.56421 | 125.22152 | 28718 ft | 312 kts | 300° |
| 2026-04-16 06:35 | 40.57699 | 125.19665 | 28188 ft | 339 kts | 288° |
| 2026-04-16 06:35 | 40.58325 | 125.16601 | 27647 ft | 359 kts | 271° |
| 2026-04-16 06:35 | 40.58053 | 125.13273 | 26893 ft | 373 kts | 250° |
| 2026-04-16 06:36 | 40.56805 | 125.10296 | 26130 ft | 375 kts | 230° |
| 2026-04-16 06:36 | 40.54854 | 125.08019 | 25390 ft | 376 kts | 220° |
| 2026-04-16 06:36 | 40.52819 | 125.05931 | 24744 ft | 374 kts | 220° |
| 2026-04-16 06:36 | 40.50783 | 125.03823 | 24184 ft | 368 kts | 220° |
| 2026-04-16 06:37 | 40.48790 | 125.01739 | 23605 ft | 364 kts | 220° |
| 2026-04-16 06:37 | 40.46827 | 124.99667 | 22887 ft | 360 kts | 220° |
| 2026-04-16 06:37 | 40.44886 | 124.97605 | 22182 ft | 357 kts | 220° |
| 2026-04-16 06:37 | 40.42914 | 124.95549 | 20958 ft | 368 kts | 216° |
| 2026-04-16 06:38 | 40.40557 | 124.94112 | 19773 ft | 383 kts | 197° |
| 2026-04-16 06:38 | 40.37868 | 124.93699 | 18572 ft | 396 kts | 186° |
| 2026-04-16 06:38 | 40.35081 | 124.93571 | 17415 ft | 403 kts | 184° |
| 2026-04-16 06:38 | 40.32279 | 124.93940 | 16725 ft | 410 kts | 169° |
| 2026-04-16 06:39 | 40.29622 | 124.95373 | 16200 ft | 418 kts | 153° |
| 2026-04-16 06:39 | 40.27169 | 124.97441 | 15692 ft | 417 kts | 150° |
| 2026-04-16 06:39 | 40.24758 | 124.99543 | 15228 ft | 415 kts | 149° |
| 2026-04-16 06:39 | 40.22372 | 125.01650 | 15070 ft | 414 kts | 149° |
| 2026-04-16 06:40 | 40.19988 | 125.03767 | 15131 ft | 415 kts | 149° |
| 2026-04-16 06:40 | 40.17618 | 125.05864 | 15174 ft | 416 kts | 149° |
| 2026-04-16 06:40 | 40.15215 | 125.07979 | 15188 ft | 416 kts | 149° |
| 2026-04-16 06:40 | 40.12810 | 125.10085 | 15186 ft | 416 kts | 149° |
| 2026-04-16 06:41 | 40.10402 | 125.12184 | 15187 ft | 416 kts | 149° |
| 2026-04-16 06:41 | 40.07988 | 125.14284 | 15105 ft | 417 kts | 149° |
| 2026-04-16 06:41 | 40.05579 | 125.16383 | 14554 ft | 414 kts | 149° |
| 2026-04-16 06:41 | 40.03200 | 125.18462 | 13917 ft | 409 kts | 149° |
| 2026-04-16 06:42 | 40.00842 | 125.20521 | 13240 ft | 405 kts | 149° |
| 2026-04-16 06:42 | 39.98517 | 125.22546 | 12632 ft | 399 kts | 149° |
| 2026-04-16 06:42 | 39.96214 | 125.24553 | 11997 ft | 395 kts | 149° |
| 2026-04-16 06:42 | 39.93933 | 125.26534 | 11360 ft | 391 kts | 149° |
| 2026-04-16 06:43 | 39.91682 | 125.28487 | 10727 ft | 386 kts | 149° |
| 2026-04-16 06:43 | 39.89525 | 125.30361 | 10540 ft | 367 kts | 148° |
| 2026-04-16 06:43 | 39.87479 | 125.32139 | 10366 ft | 338 kts | 149° |
| 2026-04-16 06:43 | 39.85608 | 125.33767 | 10210 ft | 308 kts | 149° |
| 2026-04-16 06:44 | 39.83881 | 125.35270 | 10007 ft | 291 kts | 149° |
| 2026-04-16 06:44 | 39.82225 | 125.36702 | 9867 ft | 282 kts | 149° |
| 2026-04-16 06:44 | 39.80595 | 125.38104 | 9677 ft | 280 kts | 149° |
| 2026-04-16 06:44 | 39.78973 | 125.39498 | 9337 ft | 278 kts | 149° |
| 2026-04-16 06:45 | 39.77364 | 125.40882 | 8958 ft | 276 kts | 149° |
| 2026-04-16 06:45 | 39.75769 | 125.42254 | 8586 ft | 274 kts | 149° |
| 2026-04-16 06:45 | 39.74202 | 125.43601 | 8217 ft | 272 kts | 149° |
| 2026-04-16 06:45 | 39.72554 | 125.44767 | 7863 ft | 267 kts | 161° |
| 2026-04-16 06:46 | 39.70812 | 125.45569 | 7583 ft | 265 kts | 162° |
| 2026-04-16 06:46 | 39.69076 | 125.46360 | 7296 ft | 264 kts | 162° |
| 2026-04-16 06:46 | 39.67346 | 125.47147 | 6994 ft | 263 kts | 163° |
| 2026-04-16 06:46 | 39.65624 | 125.47931 | 6708 ft | 262 kts | 162° |
| 2026-04-16 06:47 | 39.63908 | 125.48711 | 6425 ft | 262 kts | 162° |
| 2026-04-16 06:47 | 39.62198 | 125.49487 | 6127 ft | 260 kts | 162° |
| 2026-04-16 06:47 | 39.60497 | 125.50261 | 5835 ft | 258 kts | 162° |
| 2026-04-16 06:47 | 39.58795 | 125.51034 | 5551 ft | 257 kts | 162° |
| 2026-04-16 06:48 | 39.57109 | 125.51796 | 5271 ft | 257 kts | 162° |
| 2026-04-16 06:48 | 39.55420 | 125.52560 | 4982 ft | 256 kts | 162° |
| 2026-04-16 06:48 | 39.53741 | 125.53322 | 4696 ft | 255 kts | 162° |
| 2026-04-16 06:48 | 39.52070 | 125.54077 | 4409 ft | 254 kts | 162° |
| 2026-04-16 06:49 | 39.50409 | 125.54827 | 4142 ft | 252 kts | 162° |
| 2026-04-16 06:49 | 39.48811 | 125.55551 | 4051 ft | 235 kts | 162° |
| 2026-04-16 06:49 | 39.47303 | 125.56234 | 3958 ft | 225 kts | 162° |
| 2026-04-16 06:49 | 39.45861 | 125.56885 | 3848 ft | 215 kts | 163° |
| 2026-04-16 06:50 | 39.44469 | 125.57513 | 3759 ft | 211 kts | 162° |
| 2026-04-16 06:50 | 39.43078 | 125.58137 | 3698 ft | 211 kts | 163° |
| 2026-04-16 06:50 | 39.41648 | 125.58733 | 3300 ft | 219 kts | 165° |
| 2026-04-16 06:50 | 39.40170 | 125.59316 | 2897 ft | 224 kts | 165° |
| 2026-04-16 06:51 | 39.38694 | 125.59894 | 2672 ft | 215 kts | 165° |
| 2026-04-16 06:51 | 39.37293 | 125.60441 | 2607 ft | 206 kts | 164° |
| 2026-04-16 06:51 | 39.35939 | 125.60967 | 2540 ft | 202 kts | 165° |
| 2026-04-16 06:51 | 39.34624 | 125.61477 | 2381 ft | 192 kts | 165° |
| 2026-04-16 06:52 | 39.33387 | 125.61966 | 2073 ft | 179 kts | 165° |
| 2026-04-16 06:52 | 39.32238 | 125.62424 | 1833 ft | 163 kts | 164° |
| 2026-04-16 06:52 | 39.31261 | 125.62812 | 1729 ft | 131 kts | 165° |
| 2026-04-16 06:52 | 39.30361 | 125.63166 | 1734 ft | 139 kts | 166° |
| 2026-04-16 06:53 | 39.29407 | 125.63531 | 1665 ft | 145 kts | 166° |
| 2026-04-16 06:53 | 39.28502 | 125.63885 | 1442 ft | 133 kts | 167° |
| 2026-04-16 06:53 | 39.27636 | 125.64228 | 1309 ft | 128 kts | 166° |
| 2026-04-16 06:53 | 39.26785 | 125.64569 | 1131 ft | 125 kts | 167° |
| 2026-04-16 06:54 | 39.25946 | 125.64902 | 959 ft | 124 kts | 166° |
| 2026-04-16 06:54 | 39.25128 | 125.65225 | 820 ft | 124 kts | 166° |
| 2026-04-16 06:54 | 39.24276 | 125.65558 | 685 ft | 127 kts | 165° |
| 2026-04-16 06:54 | 39.23437 | 125.65887 | 539 ft | 125 kts | 166° |
| 2026-04-16 06:55 | 39.22613 | 125.66217 | 325 ft | 125 kts | 167° |
| 2026-04-16 06:55 | 39.21779 | 125.66545 | 137 ft | 126 kts | 166° |
| 2026-04-16 06:55 | 39.20987 | 125.66860 | 106 ft | 108 kts | 166° |
| 2026-04-16 06:55 | 39.20412 | 125.67081 | 103 ft | 62 kts | 163° |
| 2026-04-16 06:56 | 39.20127 | 125.67191 | 103 ft | 35 kts | 163° |
| 2026-04-16 06:56 | 39.19895 | 125.67285 | 100 ft | 37 kts | 163° |
| 2026-04-16 06:56 | 39.19660 | 125.67377 | 99 ft | 28 kts | 162° |
| 2026-04-16 06:56 | 39.19506 | 125.67439 | 97 ft | 22 kts | 163° |
| 2026-04-16 06:57 | 39.19399 | 125.67529 | 97 ft | 19 kts | 131° |
| 2026-04-16 06:57 | 39.19323 | 125.67636 | 98 ft | 13 kts | 131° |
| 2026-04-16 06:57 | 39.19316 | 125.67741 | 98 ft | 12 kts | 53° |
| 2026-04-16 06:57 | 39.19392 | 125.67743 | 99 ft | 11 kts | 342° |
| 2026-04-16 06:58 | 39.19486 | 125.67705 | 97 ft | 18 kts | 342° |
| 2026-04-16 06:58 | 39.19610 | 125.67657 | 99 ft | 18 kts | 343° |
| 2026-04-16 06:58 | 39.19727 | 125.67611 | 99 ft | 17 kts | 343° |
| 2026-04-16 06:58 | 39.19832 | 125.67570 | 99 ft | 11 kts | 343° |
| 2026-04-16 06:59 | 39.19877 | 125.67552 | 100 ft | 6 kts | 343° |
| 2026-04-16 06:59 | 39.19913 | 125.67538 | 100 ft | 5 kts | 343° |
| 2026-04-16 06:59 | 39.19944 | 125.67526 | 99 ft | 4 kts | 343° |
| 2026-04-16 06:59 | 39.19971 | 125.67516 | 100 ft | 4 kts | 346° |
| 2026-04-16 07:00 | 39.19989 | 125.67531 | 100 ft | 4 kts | 58° |
| 2026-04-16 07:00 | 39.19998 | 125.67573 | 99 ft | 5 kts | 73° |
| 2026-04-16 07:00 | 39.19999 | 125.67578 | 99 ft | 0 kts | 73° |